Time;durP1;ratioP1;P1;durP2;ratioP2;P2;SDS_P1;SDS_P2;PMS_P1;PMS_P2;Temp;Humidity;BMP_temperature;BMP_pressure;BME280_temperature;BME280_humidity;BME280_pressure;Samples;Min_cycle;Max_cycle;Signal;HPM_P1;HPM_P2
2022/07/30 00:00:34;;;;;;;7.77;7.03;;;;;;;22.93;60.24;98704.16;6944996;28;20297;-77
2022/07/30 00:03:57;;;;;;;8.87;7.03;;;;;;;23.31;59.70;98741.81;6955844;28;20230;-78
2022/07/30 00:07:19;;;;;;;9.27;8.33;;;;;;;21.74;63.06;98733.03;6949315;28;20291;-79
2022/07/30 00:10:40;;;;;;;9.70;8.80;;;;;;;21.65;64.27;98743.72;6944778;28;20208;-79
2022/07/30 00:14:02;;;;;;;9.77;8.77;;;;;;;21.27;66.36;98751.72;6948846;28;20364;-78
2022/07/30 00:17:24;;;;;;;9.63;8.33;;;;;;;21.78;64.63;98729.44;6949459;28;20237;-79
2022/07/30 00:20:46;;;;;;;8.00;7.23;;;;;;;22.32;63.09;98735.00;6949530;28;20297;-79
2022/07/30 00:24:08;;;;;;;11.57;8.73;;;;;;;22.27;62.57;98735.88;6949828;28;20209;-78
2022/07/30 00:27:33;;;;;;;10.23;7.90;;;;;;;22.41;62.22;98747.88;6946981;28;20215;-79
2022/07/30 00:30:56;;;;;;;9.23;8.43;;;;;;;22.15;62.28;98740.88;6948664;28;20215;-79
2022/07/30 00:34:17;;;;;;;9.33;8.30;;;;;;;22.19;61.06;98749.38;6949628;28;20211;-78
2022/07/30 00:37:40;;;;;;;8.77;7.73;;;;;;;22.34;61.65;98750.13;6949075;28;20685;-78
2022/07/30 00:41:02;;;;;;;7.83;7.13;;;;;;;22.54;60.50;98730.00;6949388;28;20211;-79
2022/07/30 00:44:24;;;;;;;10.13;6.73;;;;;;;22.70;60.03;98754.34;6949564;28;20208;-79
2022/07/30 00:47:46;;;;;;;7.33;6.57;;;;;;;22.49;60.42;98750.06;6949176;28;20240;-78
2022/07/30 00:51:07;;;;;;;11.50;6.33;;;;;;;22.50;59.61;98754.47;6948723;28;20369;-78
2022/07/30 00:54:31;;;;;;;8.33;6.60;;;;;;;22.42;60.25;98768.75;6949222;28;20237;-78
2022/07/30 00:57:53;;;;;;;7.20;6.50;;;;;;;22.56;59.67;98774.50;6948349;28;20227;-78
2022/07/30 01:01:14;;;;;;;9.67;7.27;;;;;;;22.63;59.81;98766.75;6949022;28;20257;-78
2022/07/30 01:04:36;;;;;;;9.07;6.60;;;;;;;22.37;59.51;98735.00;6948421;28;20317;-78
2022/07/30 01:07:58;;;;;;;7.40;6.00;;;;;;;22.36;59.95;98775.38;6948475;28;20299;-78
2022/07/30 01:11:20;;;;;;;9.80;7.67;;;;;;;21.70;61.86;98776.69;6948309;28;20270;-78
2022/07/30 01:14:42;;;;;;;7.60;6.87;;;;;;;21.99;61.52;98769.47;6948423;28;20556;-78
2022/07/30 01:18:06;;;;;;;7.60;6.90;;;;;;;22.31;60.88;98793.81;6947484;28;20230;-78
2022/07/30 01:21:32;;;;;;;7.33;6.63;;;;;;;22.66;59.75;98783.50;6947950;28;20225;-78
2022/07/30 01:24:58;;;;;;;8.87;7.00;;;;;;;22.42;60.23;98771.50;6948512;28;20195;-78
2022/07/30 01:28:24;;;;;;;7.87;7.13;;;;;;;22.17;60.37;98781.75;6947337;28;20728;-78
2022/07/30 01:31:47;;;;;;;10.57;7.43;;;;;;;22.09;60.91;98771.38;6947478;28;20225;-78
2022/07/30 01:35:10;;;;;;;8.53;7.70;;;;;;;22.33;60.50;98764.13;6947698;28;20225;-79
2022/07/30 01:38:32;;;;;;;7.90;7.10;;;;;;;22.61;59.46;98778.03;6946995;28;20396;-79
2022/07/30 01:41:54;;;;;;;6.20;5.60;;;;;;;22.45;59.10;98778.38;6947626;28;20225;-78
2022/07/30 01:45:17;;;;;;;7.70;6.60;;;;;;;22.42;59.05;98789.94;6947928;28;20214;-78
2022/07/30 01:48:40;;;;;;;7.30;6.33;;;;;;;21.67;61.13;98798.38;6946745;28;20252;-78
2022/07/30 01:52:03;;;;;;;8.30;7.07;;;;;;;21.67;61.46;98796.44;6947171;28;20373;-78
2022/07/30 01:55:27;;;;;;;7.47;5.90;;;;;;;21.74;60.78;98772.28;6947450;28;20292;-78
2022/07/30 01:58:49;;;;;;;7.57;6.97;;;;;;;21.74;61.25;98802.47;6946606;28;20226;-78
2022/07/30 02:02:12;;;;;;;6.57;6.03;;;;;;;22.12;60.44;98804.59;6947482;28;20262;-79
2022/07/30 02:05:34;;;;;;;7.90;7.10;;;;;;;21.69;61.55;98786.03;6947373;28;20308;-78
2022/07/30 02:08:58;;;;;;;7.53;6.90;;;;;;;21.53;62.15;98805.50;6946761;28;20538;-78
2022/07/30 02:12:30;;;;;;;12.40;6.77;;;;;;;22.00;60.59;98790.34;6947263;28;20391;-79
2022/07/30 02:15:55;;;;;;;6.93;6.33;;;;;;;22.11;60.20;98796.59;6946925;28;20215;-78
2022/07/30 02:19:18;;;;;;;7.97;6.23;;;;;;;22.11;60.47;98793.88;6946264;28;20688;-78
2022/07/30 02:22:47;;;;;;;8.33;6.63;;;;;;;21.91;60.37;98761.81;6946384;28;20217;-78
2022/07/30 02:26:09;;;;;;;7.30;6.60;;;;;;;22.15;60.08;98771.06;6946853;28;20226;-78
2022/07/30 02:29:32;;;;;;;8.00;7.30;;;;;;;22.11;60.27;98786.47;6922606;28;20590;-78
2022/07/30 02:32:56;;;;;;;6.93;6.23;;;;;;;22.09;59.74;98785.94;6918203;28;20271;-78
2022/07/30 02:36:19;;;;;;;8.50;7.20;;;;;;;22.07;60.41;98779.88;6918632;28;20675;-78
2022/07/30 02:39:42;;;;;;;9.43;6.30;;;;;;;22.10;59.72;98793.06;6918440;28;20228;-79
2022/07/30 02:43:04;;;;;;;8.50;6.97;;;;;;;21.90;60.19;98779.38;6918842;28;20238;-78
2022/07/30 02:46:26;;;;;;;7.17;6.47;;;;;;;21.81;59.70;98764.59;6919533;28;20236;-79
2022/07/30 02:49:49;;;;;;;6.77;6.13;;;;;;;21.97;59.48;98782.66;6918339;28;20213;-78
2022/07/30 02:53:14;;;;;;;7.53;6.60;;;;;;;22.02;59.93;98809.28;6918360;28;20261;-79
2022/07/30 02:56:37;;;;;;;7.40;6.80;;;;;;;21.87;60.18;98815.63;6918745;28;20198;-78
2022/07/30 02:59:58;;;;;;;11.17;7.20;;;;;;;21.41;61.08;98821.38;6918396;28;20839;-78
2022/07/30 03:03:20;;;;;;;7.53;6.83;;;;;;;21.52;61.30;98812.06;6918480;28;20316;-78
2022/07/30 03:06:43;;;;;;;7.90;7.10;;;;;;;21.67;60.94;98817.56;6918524;28;20219;-79
2022/07/30 03:10:07;;;;;;;11.37;6.93;;;;;;;21.68;60.48;98806.34;6917849;28;20301;-78
2022/07/30 03:13:29;;;;;;;8.40;6.60;;;;;;;21.68;60.41;98819.22;6917732;28;20226;-78
2022/07/30 03:16:55;;;;;;;7.73;6.93;;;;;;;21.82;59.17;98818.38;6918207;28;20266;-78
2022/07/30 03:20:18;;;;;;;8.00;7.00;;;;;;;21.68;60.25;98838.44;6916653;28;20216;-78
2022/07/30 03:23:40;;;;;;;7.77;7.13;;;;;;;21.33;61.11;98840.34;6917467;28;20257;-78
2022/07/30 03:27:04;;;;;;;7.97;7.37;;;;;;;21.60;60.13;98809.59;6917485;28;20208;-78
2022/07/30 03:30:27;;;;;;;7.23;6.43;;;;;;;21.79;59.31;98838.16;6917534;28;20229;-78
2022/07/30 03:33:49;;;;;;;7.90;6.57;;;;;;;21.63;59.74;98835.66;6918275;28;20267;-78
2022/07/30 03:37:11;;;;;;;7.47;6.50;;;;;;;21.48;60.01;98821.97;6919512;28;20588;-78
2022/07/30 03:40:32;;;;;;;10.23;7.13;;;;;;;20.85;61.16;98855.28;6920119;28;20658;-78
2022/07/30 03:43:56;;;;;;;10.13;7.67;;;;;;;21.20;60.92;98847.97;6946882;28;20208;-80
2022/07/30 03:47:19;;;;;;;7.40;6.80;;;;;;;21.18;60.57;98860.34;6922606;28;20607;-78
2022/07/30 03:50:41;;;;;;;7.23;6.63;;;;;;;21.23;60.13;98852.09;6924616;28;20213;-78
2022/07/30 03:54:05;;;;;;;10.47;6.47;;;;;;;21.44;59.42;98871.06;6924476;28;20290;-78
2022/07/30 03:57:26;;;;;;;6.93;6.20;;;;;;;21.42;59.14;98851.28;6923976;28;20851;-78
2022/07/30 04:00:50;;;;;;;7.10;6.40;;;;;;;21.27;59.30;98877.06;6924167;28;20243;-78
2022/07/30 04:04:12;;;;;;;6.70;6.10;;;;;;;21.27;59.14;98853.19;6924816;28;20242;-77
2022/07/30 04:07:33;;;;;;;9.57;6.87;;;;;;;21.01;59.95;98875.34;6924209;28;20361;-79
2022/07/30 04:10:55;;;;;;;7.00;6.40;;;;;;;21.09;59.86;98878.41;6924705;28;20219;-78
2022/07/30 04:14:16;;;;;;;6.53;5.93;;;;;;;21.27;59.32;98877.06;6924508;28;20300;-79
2022/07/30 04:17:41;;;;;;;6.97;6.37;;;;;;;21.14;59.25;98887.44;6923951;28;20269;-78
2022/07/30 04:21:04;;;;;;;6.87;6.03;;;;;;;21.11;58.79;98881.69;6928666;28;20215;-78
2022/07/30 04:24:26;;;;;;;9.67;7.73;;;;;;;20.54;60.29;98885.56;6939604;28;20211;-78
2022/07/30 04:27:48;;;;;;;8.50;6.93;;;;;;;20.39;60.70;98888.25;6933380;28;20203;-79
2022/07/30 04:31:11;;;;;;;8.03;7.33;;;;;;;20.34;61.34;98896.44;6922886;28;20256;-79
2022/07/30 04:34:34;;;;;;;7.93;7.23;;;;;;;20.36;61.40;98905.19;6923316;28;20185;-78
2022/07/30 04:37:56;;;;;;;8.10;7.03;;;;;;;20.61;60.89;98913.53;6922596;28;20319;-78
2022/07/30 04:41:17;;;;;;;7.83;6.90;;;;;;;20.79;59.91;98911.16;6923698;28;20286;-78
2022/07/30 04:44:39;;;;;;;7.40;6.30;;;;;;;20.87;59.79;98902.41;6922874;28;20244;-78
2022/07/30 04:48:00;;;;;;;7.83;7.03;;;;;;;20.37;61.26;98906.84;6924704;28;20213;-79
2022/07/30 04:51:26;;;;;;;9.50;7.00;;;;;;;20.52;61.11;98904.19;6929367;28;20246;-80
2022/07/30 04:54:51;;;;;;;8.07;7.23;;;;;;;20.71;60.38;98924.56;6928851;28;20181;-80
2022/07/30 04:58:15;;;;;;;8.83;7.70;;;;;;;20.69;60.89;98902.91;6926375;28;20241;-79
2022/07/30 05:01:37;;;;;;;8.20;7.30;;;;;;;20.67;60.79;98907.81;6927717;28;20222;-79
2022/07/30 05:05:01;;;;;;;9.20;8.33;;;;;;;20.71;60.96;98919.06;6934116;28;20209;-78
2022/07/30 05:08:25;;;;;;;8.23;7.43;;;;;;;20.97;60.20;98920.84;6932641;28;20819;-78
2022/07/30 05:11:51;;;;;;;9.60;8.00;;;;;;;21.14;60.43;98930.50;6945085;28;20255;-78
2022/07/30 05:15:13;;;;;;;7.43;6.63;;;;;;;21.32;59.92;98916.28;6932386;28;20211;-79
2022/07/30 05:18:34;;;;;;;8.30;7.50;;;;;;;21.42;58.91;98927.31;6926409;28;20587;-78
2022/07/30 05:21:56;;;;;;;6.90;6.27;;;;;;;21.17;58.96;98835.91;6929042;28;20225;-78
2022/07/30 05:25:19;;;;;;;7.83;6.30;;;;;;;22.05;57.53;98916.66;6925267;28;20196;-78
2022/07/30 05:28:40;;;;;;;7.07;6.03;;;;;;;22.42;56.58;98941.84;6924547;28;20208;-78
2022/07/30 05:32:02;;;;;;;6.37;5.73;;;;;;;22.73;56.80;98921.44;6923655;28;20231;-78
2022/07/30 05:35:23;;;;;;;6.40;5.90;;;;;;;23.19;54.00;98928.44;6924761;28;20282;-79
2022/07/30 05:38:45;;;;;;;6.27;5.50;;;;;;;23.81;53.13;98931.34;6922750;28;20228;-78
2022/07/30 05:42:08;;;;;;;5.47;4.97;;;;;;;24.39;51.22;98922.03;6922255;28;20238;-77
2022/07/30 05:45:30;;;;;;;5.50;4.93;;;;;;;24.81;50.40;98921.31;6922684;28;20213;-78
2022/07/30 05:48:51;;;;;;;5.60;4.83;;;;;;;25.14;48.88;98925.88;6942745;28;20210;-78
2022/07/30 05:52:13;;;;;;;5.40;4.90;;;;;;;25.48;48.21;98934.81;6926174;28;20237;-78
2022/07/30 05:55:34;;;;;;;7.27;5.30;;;;;;;25.29;48.25;98928.44;6922494;28;20744;-78
2022/07/30 05:58:57;;;;;;;7.13;5.47;;;;;;;25.40;49.77;98929.94;6921405;28;20783;-77
2022/07/30 06:02:19;;;;;;;6.70;5.47;;;;;;;25.85;47.69;98930.09;6921815;28;20293;-78
2022/07/30 06:05:42;;;;;;;5.40;4.93;;;;;;;26.06;48.41;98936.09;6921756;28;20584;-77
2022/07/30 06:09:03;;;;;;;7.07;5.50;;;;;;;26.21;46.97;98933.94;6920287;28;20640;-77
2022/07/30 06:12:25;;;;;;;6.50;5.10;;;;;;;25.66;47.65;98940.31;6921697;28;20234;-78
2022/07/30 06:15:48;;;;;;;5.57;5.03;;;;;;;25.51;47.68;98928.69;6921942;28;20266;-77
2022/07/30 06:19:09;;;;;;;5.97;5.13;;;;;;;25.31;46.56;98934.50;6921390;28;20324;-78
2022/07/30 06:22:31;;;;;;;9.47;5.00;;;;;;;25.53;44.99;98938.31;6921504;28;20788;-78
2022/07/30 06:25:52;;;;;;;6.17;5.50;;;;;;;25.91;44.46;98945.50;6921293;28;20613;-77
2022/07/30 06:29:14;;;;;;;5.60;4.77;;;;;;;25.92;44.20;98925.03;6926564;28;20211;-78
2022/07/30 06:32:37;;;;;;;6.83;5.30;;;;;;;26.52;43.05;98950.78;6946794;28;20222;-78
2022/07/30 06:35:59;;;;;;;8.10;5.43;;;;;;;26.73;42.87;98925.22;6948251;28;20215;-78
2022/07/30 06:39:21;;;;;;;4.90;4.40;;;;;;;26.78;42.96;98944.50;6947821;28;20244;-78
2022/07/30 06:42:42;;;;;;;8.27;5.10;;;;;;;26.87;42.89;98945.44;6948520;28;20294;-78
2022/07/30 06:46:04;;;;;;;6.43;5.50;;;;;;;26.70;41.57;98941.59;6948178;28;20368;-79
2022/07/30 06:49:27;;;;;;;6.73;4.97;;;;;;;26.91;41.24;98938.16;6947240;28;20238;-78
2022/07/30 06:52:48;;;;;;;5.30;4.50;;;;;;;27.12;40.20;98944.91;6947788;28;20286;-78
2022/07/30 06:56:10;;;;;;;6.90;4.97;;;;;;;26.70;41.62;98950.75;6947134;28;20231;-78
2022/07/30 06:59:32;;;;;;;6.00;5.30;;;;;;;26.59;41.77;98960.34;6946798;28;20265;-79
2022/07/30 07:02:53;;;;;;;7.20;5.40;;;;;;;26.57;40.54;98959.03;6953723;28;20723;-79
2022/07/30 07:06:16;;;;;;;8.43;5.27;;;;;;;26.87;40.41;98953.72;6950310;28;20235;-79
2022/07/30 07:09:38;;;;;;;6.63;4.70;;;;;;;28.47;38.54;98947.31;6948567;28;20212;-79
2022/07/30 07:13:00;;;;;;;6.07;4.90;;;;;;;27.85;39.48;98958.56;6951300;28;20274;-79
2022/07/30 07:16:24;;;;;;;6.97;4.97;;;;;;;27.98;38.24;98929.97;6952364;28;20206;-79
2022/07/30 07:19:45;;;;;;;4.97;4.17;;;;;;;27.92;36.63;98945.91;6952482;28;20225;-78
2022/07/30 07:23:08;;;;;;;4.80;4.23;;;;;;;29.10;35.93;98944.19;6954631;28;20230;-79
2022/07/30 07:26:31;;;;;;;7.47;3.97;;;;;;;28.49;35.24;98950.56;6954494;28;20237;-78
2022/07/30 07:29:52;;;;;;;4.90;4.10;;;;;;;28.66;34.90;98960.97;6954090;28;20295;-78
2022/07/30 07:33:14;;;;;;;4.73;3.73;;;;;;;28.59;35.00;98966.94;6953180;28;20596;-78
2022/07/30 07:36:36;;;;;;;7.77;4.00;;;;;;;29.33;34.67;98956.84;6953763;28;20202;-78
2022/07/30 07:39:59;;;;;;;4.60;3.77;;;;;;;29.56;32.66;98958.38;6953119;28;20255;-79
2022/07/30 07:43:20;;;;;;;6.07;3.80;;;;;;;30.20;32.26;98955.47;6953642;28;20223;-78
2022/07/30 07:46:42;;;;;;;6.37;4.03;;;;;;;29.55;33.71;98962.31;6953706;28;20682;-79
2022/07/30 07:50:04;;;;;;;6.40;4.03;;;;;;;29.17;34.43;98970.34;6952662;28;20250;-78
2022/07/30 07:53:26;;;;;;;5.10;3.43;;;;;;;29.24;33.25;98959.59;6977797;28;20231;-79
2022/07/30 07:56:50;;;;;;;6.07;3.40;;;;;;;30.59;31.68;98946.06;6954067;28;20245;-79
2022/07/30 08:00:14;;;;;;;6.17;3.57;;;;;;;30.90;31.50;98955.81;6953398;28;20264;-78
2022/07/30 08:03:36;;;;;;;3.70;3.30;;;;;;;30.88;31.21;98965.66;6953845;28;20226;-79
2022/07/30 08:06:57;;;;;;;5.07;3.73;;;;;;;30.04;30.81;98936.81;6956090;28;20204;-79
2022/07/30 08:10:19;;;;;;;4.63;3.30;;;;;;;30.14;31.98;98961.56;6952745;28;20244;-79
2022/07/30 08:13:42;;;;;;;8.17;4.17;;;;;;;30.42;31.18;98935.00;6953990;28;20271;-79
2022/07/30 08:17:03;;;;;;;5.13;3.67;;;;;;;30.18;31.70;98959.72;6953486;28;20575;-79
2022/07/30 08:20:25;;;;;;;6.30;3.50;;;;;;;31.19;30.46;98963.44;6952964;28;20261;-79
2022/07/30 08:23:46;;;;;;;4.83;3.50;;;;;;;31.05;30.41;98963.63;6953576;28;20262;-79
2022/07/30 08:27:08;;;;;;;7.37;3.50;;;;;;;31.51;29.75;98946.84;6954264;28;20251;-79
2022/07/30 08:30:31;;;;;;;5.10;3.33;;;;;;;30.57;29.80;98951.16;6937626;28;20352;-79
2022/07/30 08:33:52;;;;;;;5.47;3.50;;;;;;;30.53;31.43;98958.53;6935599;28;20695;-79
2022/07/30 08:37:14;;;;;;;7.73;3.13;;;;;;;30.75;30.11;98947.19;6926082;28;20679;-79
2022/07/30 08:40:35;;;;;;;7.47;3.30;;;;;;;30.47;30.43;98952.31;6925599;28;20279;-79
2022/07/30 08:44:00;;;;;;;5.63;3.13;;;;;;;31.51;28.76;98955.22;6926031;28;20243;-78
2022/07/30 08:47:26;;;;;;;5.27;3.43;;;;;;;31.59;29.42;98954.34;6927352;28;20264;-79
2022/07/30 08:50:48;;;;;;;6.47;3.37;;;;;;;31.63;29.27;98958.09;6926348;28;20250;-78
2022/07/30 08:54:10;;;;;;;5.17;3.30;;;;;;;30.97;29.23;98944.16;6926223;28;20586;-79
2022/07/30 08:57:32;;;;;;;5.33;3.77;;;;;;;31.16;30.21;98952.91;6925566;28;20206;-79
2022/07/30 09:00:54;;;;;;;6.87;3.47;;;;;;;31.26;28.67;98953.38;6926055;28;20227;-79
2022/07/30 09:04:17;;;;;;;5.87;3.40;;;;;;;31.14;28.53;98955.22;6925870;28;20789;-79
2022/07/30 09:07:39;;;;;;;4.20;3.00;;;;;;;30.96;28.98;98946.13;6924632;28;20223;-79
2022/07/30 09:11:01;;;;;;;3.70;3.10;;;;;;;32.16;29.00;98971.31;6926332;28;20244;-79
2022/07/30 09:14:22;;;;;;;8.50;3.97;;;;;;;31.87;27.99;98940.69;6925965;28;20243;-78
2022/07/30 09:17:53;;;;;;;3.53;3.07;;;;;;;31.66;27.96;98962.16;6925838;28;20212;-79
2022/07/30 09:21:18;;;;;;;3.97;3.10;;;;;;;29.93;29.80;98960.53;6924103;28;20325;-78
2022/07/30 09:24:42;;;;;;;5.07;3.07;;;;;;;30.04;30.26;98957.13;6925193;28;20674;-79
2022/07/30 09:28:04;;;;;;;4.33;3.00;;;;;;;30.93;28.25;98954.34;6925079;28;20217;-79
2022/07/30 09:31:26;;;;;;;3.70;2.43;;;;;;;31.25;27.66;98951.75;6924166;28;20314;-79
2022/07/30 09:34:48;;;;;;;7.17;3.63;;;;;;;30.57;28.04;98951.97;6925335;28;20260;-79
2022/07/30 09:38:11;;;;;;;5.50;3.10;;;;;;;30.07;28.74;98952.84;6923742;28;20250;-79
2022/07/30 09:41:34;;;;;;;3.20;2.50;;;;;;;30.34;29.03;98956.13;6925138;28;20761;-79
2022/07/30 09:45:05;;;;;;;2.87;2.57;;;;;;;32.33;26.07;98946.06;6925466;28;20218;-79
2022/07/30 09:48:28;;;;;;;3.43;2.70;;;;;;;31.79;26.06;98956.34;6926144;28;20294;-79
2022/07/30 09:51:50;;;;;;;3.57;2.70;;;;;;;30.81;27.40;98943.91;6925063;28;20261;-78
2022/07/30 09:55:14;;;;;;;8.07;2.70;;;;;;;31.55;26.07;98925.50;6926081;28;20209;-78
2022/07/30 09:58:40;;;;;;;2.73;2.33;;;;;;;32.34;25.82;98947.69;6925204;28;20837;-79
2022/07/30 10:02:02;;;;;;;4.80;2.57;;;;;;;32.23;25.37;98952.84;6925650;28;20235;-79
2022/07/30 10:05:24;;;;;;;3.30;2.40;;;;;;;32.21;25.08;98946.81;6925832;28;20206;-79
2022/07/30 10:08:48;;;;;;;3.83;2.80;;;;;;;33.24;23.71;98929.69;6925389;28;20675;-79
2022/07/30 10:12:13;;;;;;;3.57;2.70;;;;;;;32.72;24.95;98934.31;6926327;28;20299;-79
2022/07/30 10:15:36;;;;;;;4.27;2.77;;;;;;;32.76;25.41;98944.47;6926498;28;20202;-79
2022/07/30 10:18:59;;;;;;;4.37;2.70;;;;;;;32.36;25.21;98945.38;6926287;28;20217;-78
2022/07/30 10:22:20;;;;;;;8.03;2.63;;;;;;;32.79;24.56;98940.16;6926238;28;20227;-79
2022/07/30 10:25:42;;;;;;;2.53;2.33;;;;;;;31.49;26.12;98945.56;6932928;28;20209;-79
2022/07/30 10:29:05;;;;;;;4.87;2.77;;;;;;;32.54;25.07;98942.06;6933860;28;20214;-79
2022/07/30 10:32:27;;;;;;;3.30;2.73;;;;;;;32.64;25.30;98944.41;6930934;28;20238;-79
2022/07/30 10:35:49;;;;;;;6.50;2.40;;;;;;;32.86;24.41;98941.22;6925901;28;20198;-79
2022/07/30 10:39:14;;;;;;;2.73;2.17;;;;;;;32.86;22.92;98930.06;6925217;28;20217;-79
2022/07/30 10:42:50;;;;;;;2.50;2.10;;;;;;;32.64;23.50;98927.66;6925678;28;20222;-78
2022/07/30 10:46:18;;;;;;;4.67;2.20;;;;;;;32.55;24.21;98915.75;6926356;28;20199;-79
2022/07/30 10:49:40;;;;;;;2.93;2.00;;;;;;;33.23;22.78;98934.50;6925868;28;20198;-79
2022/07/30 10:53:02;;;;;;;5.37;2.20;;;;;;;33.30;22.73;98919.97;6926678;28;20237;-79
2022/07/30 10:56:25;;;;;;;2.43;2.20;;;;;;;33.00;22.79;98924.94;6926100;28;20569;-79
2022/07/30 11:00:13;;;;;;;3.87;2.10;;;;;;;32.80;23.81;98925.03;6925767;28;20242;-80
2022/07/30 11:03:36;;;;;;;4.90;2.10;;;;;;;32.28;24.56;98919.19;6926662;28;20228;-79
2022/07/30 11:07:28;;;;;;;4.70;2.20;;;;;;;32.32;24.43;98922.09;6926022;28;20211;-79
2022/07/30 11:10:49;;;;;;;2.50;2.30;;;;;;;32.29;24.92;98901.28;6923324;28;20208;-79
2022/07/30 11:14:11;;;;;;;6.23;2.33;;;;;;;32.17;23.66;98920.75;6926796;28;20726;-79
2022/07/30 11:18:03;;;;;;;6.53;2.50;;;;;;;31.71;24.67;98934.88;6925727;28;20714;-80
2022/07/30 11:21:26;;;;;;;3.17;2.00;;;;;;;33.24;23.60;98922.13;6926285;28;20233;-79
2022/07/30 11:24:48;;;;;;;6.33;2.07;;;;;;;33.40;22.66;98920.31;6937435;28;20207;-79
2022/07/30 11:28:34;;;;;;;4.20;2.27;;;;;;;32.30;24.07;98916.06;6927519;28;20214;-79
2022/07/30 11:31:56;;;;;;;3.33;2.40;;;;;;;31.49;24.69;98924.06;6950067;28;20276;-79
2022/07/30 11:35:20;;;;;;;4.60;2.37;;;;;;;31.40;26.18;98914.13;6951469;28;20198;-79
2022/07/30 11:38:54;;;;;;;2.23;2.00;;;;;;;31.81;24.92;98912.22;6951342;28;20752;-81
2022/07/30 11:42:26;;;;;;;2.53;2.20;;;;;;;32.36;24.61;98909.91;6933860;28;20233;-79
2022/07/30 11:45:49;;;;;;;2.40;2.20;;;;;;;32.37;24.12;98903.16;6926235;28;20423;-79
2022/07/30 11:49:10;;;;;;;5.27;1.93;;;;;;;31.84;24.06;98846.56;6926508;28;20209;-79
2022/07/30 11:52:32;;;;;;;6.40;2.10;;;;;;;32.94;23.13;98906.78;6925496;28;20231;-79
2022/07/30 11:55:56;;;;;;;4.17;2.03;;;;;;;33.34;22.00;98892.91;6926550;28;20209;-79
2022/07/30 11:59:18;;;;;;;4.40;2.50;;;;;;;32.95;23.43;98907.59;6925084;28;20204;-79
2022/07/30 12:02:40;;;;;;;4.33;2.70;;;;;;;33.17;22.94;98890.34;6925887;28;20230;-79
2022/07/30 12:06:05;;;;;;;2.47;1.80;;;;;;;32.77;22.93;98914.56;6924838;28;20202;-79
2022/07/30 12:09:28;;;;;;;2.67;2.00;;;;;;;33.69;22.32;98899.59;6928350;28;20211;-79
2022/07/30 12:12:51;;;;;;;2.67;1.90;;;;;;;33.20;22.02;98850.53;6930561;28;20279;-79
2022/07/30 12:16:13;;;;;;;2.27;2.00;;;;;;;33.89;21.39;98896.66;6930722;28;20207;-79
2022/07/30 12:19:43;;;;;;;5.30;2.00;;;;;;;33.50;20.66;98889.03;6954990;28;20586;-79
2022/07/30 12:23:10;;;;;;;3.70;1.60;;;;;;;33.28;21.10;98880.34;6957739;28;20241;-79
2022/07/30 12:26:33;;;;;;;1.50;1.40;;;;;;;34.06;21.18;98885.16;6957354;28;20206;-79
2022/07/30 12:29:56;;;;;;;3.67;1.97;;;;;;;33.67;21.58;98890.75;6958137;28;20564;-79
2022/07/30 12:33:18;;;;;;;2.07;1.87;;;;;;;33.04;21.75;98883.97;6956434;28;20227;-80
2022/07/30 12:36:39;;;;;;;4.07;2.10;;;;;;;33.65;21.53;98890.28;6954782;28;20191;-79
2022/07/30 12:40:12;;;;;;;4.03;1.83;;;;;;;34.48;21.19;98888.38;6956370;28;20232;-79
2022/07/30 12:43:42;;;;;;;2.87;1.80;;;;;;;33.91;21.76;98894.31;6956584;28;20231;-80
2022/07/30 12:47:06;;;;;;;5.20;1.80;;;;;;;33.33;21.66;98878.16;6957581;28;20280;-79
2022/07/30 12:50:28;;;;;;;1.77;1.57;;;;;;;33.85;21.47;98867.75;6957164;28;20282;-79
2022/07/30 12:53:50;;;;;;;2.00;1.73;;;;;;;33.90;21.24;98870.31;6956867;28;20227;-80
2022/07/30 12:57:11;;;;;;;4.67;2.17;;;;;;;33.73;21.37;98869.75;6958393;28;20203;-79
2022/07/30 13:00:46;;;;;;;2.20;1.77;;;;;;;33.58;21.62;98871.31;6957956;28;20235;-80
2022/07/30 13:04:10;;;;;;;4.23;1.90;;;;;;;34.24;21.08;98866.88;6965678;28;20223;-80
2022/07/30 13:07:31;;;;;;;3.90;1.97;;;;;;;33.29;21.97;98834.44;6961230;28;20241;-79
2022/07/30 13:10:58;;;;;;;4.97;2.03;;;;;;;32.71;22.60;98849.69;6955155;28;20238;-79
2022/07/30 13:14:20;;;;;;;2.83;1.80;;;;;;;31.95;23.64;98842.19;6954509;28;20210;-79
2022/07/30 13:17:42;;;;;;;2.63;1.90;;;;;;;31.97;22.57;98851.03;6953439;28;20299;-79
2022/07/30 13:21:07;;;;;;;3.67;1.97;;;;;;;32.97;22.25;98839.00;6954087;28;20302;-79
2022/07/30 13:24:29;;;;;;;1.90;1.77;;;;;;;33.13;22.47;98842.72;6955612;28;20285;-78
2022/07/30 13:27:50;;;;;;;2.33;1.90;;;;;;;33.36;21.34;98841.09;6954407;28;20272;-79
2022/07/30 13:31:12;;;;;;;4.13;1.93;;;;;;;34.04;21.97;98837.16;6953346;28;20230;-79
2022/07/30 13:34:34;;;;;;;3.33;1.90;;;;;;;33.76;21.27;98827.91;6954615;28;20273;-79
2022/07/30 13:37:57;;;;;;;2.67;1.73;;;;;;;33.72;21.89;98809.41;6953808;28;20235;-78
2022/07/30 13:41:19;;;;;;;2.17;1.67;;;;;;;34.27;21.68;98827.00;6954679;28;20598;-79
2022/07/30 13:44:40;;;;;;;1.87;1.70;;;;;;;33.60;21.83;98824.22;6954060;28;20203;-79
2022/07/30 13:48:02;;;;;;;2.40;1.90;;;;;;;34.35;21.29;98820.41;6958116;28;20207;-79
2022/07/30 13:51:24;;;;;;;6.40;2.00;;;;;;;33.88;21.69;98827.88;6967656;28;20242;-78
2022/07/30 13:54:50;;;;;;;2.00;1.70;;;;;;;34.69;20.67;98811.28;6951970;28;20290;-79
2022/07/30 13:58:11;;;;;;;2.60;1.80;;;;;;;32.42;23.41;98810.81;6952329;28;20195;-79
2022/07/30 14:01:33;;;;;;;3.47;2.00;;;;;;;33.77;21.20;98826.75;6952759;28;20373;-79
2022/07/30 14:04:55;;;;;;;2.70;1.70;;;;;;;33.97;21.05;98817.31;6952932;28;20219;-78
2022/07/30 14:08:16;;;;;;;4.57;2.10;;;;;;;33.71;21.09;98811.38;6952414;28;20209;-79
2022/07/30 14:11:39;;;;;;;3.17;2.00;;;;;;;33.59;21.92;98802.19;6953443;28;20286;-79
2022/07/30 14:15:01;;;;;;;2.60;2.40;;;;;;;33.65;21.60;98809.16;6952696;28;20677;-79
2022/07/30 14:18:22;;;;;;;2.73;2.10;;;;;;;33.95;21.38;98813.28;6950949;28;20234;-79
2022/07/30 14:21:44;;;;;;;4.50;2.13;;;;;;;33.84;21.87;98801.78;6951046;28;20242;-78
2022/07/30 14:25:07;;;;;;;3.63;2.07;;;;;;;33.87;21.55;98792.69;6946082;28;20249;-79
2022/07/30 14:28:30;;;;;;;2.73;1.70;;;;;;;33.64;22.15;98797.19;6951877;28;20199;-79
2022/07/30 14:31:51;;;;;;;3.57;1.90;;;;;;;32.30;23.23;98794.06;6950258;28;20239;-79
2022/07/30 14:35:13;;;;;;;1.73;1.63;;;;;;;31.79;23.86;98774.28;6953397;28;20686;-78
2022/07/30 14:38:34;;;;;;;3.57;1.87;;;;;;;32.34;23.42;98788.59;6952661;28;20295;-79
2022/07/30 14:41:56;;;;;;;2.10;1.80;;;;;;;33.25;22.35;98784.00;6952998;28;20235;-79
2022/07/30 14:45:19;;;;;;;4.70;1.90;;;;;;;33.22;22.33;98769.91;6953629;28;20206;-79
2022/07/30 14:48:40;;;;;;;2.63;1.90;;;;;;;33.21;22.27;98782.28;6953642;28;20284;-79
2022/07/30 14:52:02;;;;;;;3.20;2.00;;;;;;;33.41;22.16;98795.28;6954246;28;20337;-79
2022/07/30 14:55:24;;;;;;;2.93;1.93;;;;;;;33.20;22.63;98792.63;6953464;28;20216;-79
2022/07/30 14:58:45;;;;;;;3.80;1.63;;;;;;;33.17;22.35;98786.94;6952775;28;20215;-79
2022/07/30 15:02:08;;;;;;;2.23;2.03;;;;;;;33.56;22.18;98795.38;6954155;28;20621;-79
2022/07/30 15:05:30;;;;;;;3.63;2.00;;;;;;;33.99;21.86;98789.81;6953531;28;20217;-79
2022/07/30 15:08:52;;;;;;;1.90;1.60;;;;;;;33.44;22.71;98784.19;6953070;28;20692;-79
2022/07/30 15:12:15;;;;;;;3.57;1.60;;;;;;;33.61;21.96;98778.31;6954636;28;20854;-79
2022/07/30 15:15:37;;;;;;;2.03;1.63;;;;;;;33.49;22.46;98774.78;6953380;28;20217;-78
2022/07/30 15:18:59;;;;;;;1.67;1.50;;;;;;;33.37;22.61;98791.59;6953570;28;20205;-79
2022/07/30 15:22:21;;;;;;;2.47;1.80;;;;;;;33.00;23.38;98771.25;6959500;28;20235;-79
2022/07/30 15:25:44;;;;;;;3.63;1.80;;;;;;;33.39;22.64;98787.28;6960351;28;20222;-80
2022/07/30 15:29:05;;;;;;;1.93;1.57;;;;;;;33.65;22.27;98787.63;6957656;28;20226;-79
2022/07/30 15:32:27;;;;;;;2.17;1.70;;;;;;;33.95;22.01;98788.09;6951764;28;20225;-78
2022/07/30 15:35:50;;;;;;;1.70;1.60;;;;;;;33.51;21.98;98773.25;6953203;28;20191;-79
2022/07/30 15:39:12;;;;;;;1.53;1.43;;;;;;;33.95;21.84;98768.53;6952865;28;20229;-78
2022/07/30 15:42:33;;;;;;;4.30;1.60;;;;;;;32.98;23.21;98758.81;6955007;28;20229;-79
2022/07/30 15:45:55;;;;;;;1.90;1.80;;;;;;;33.72;22.43;98775.84;6958439;28;20209;-79
2022/07/30 15:49:17;;;;;;;4.10;1.97;;;;;;;33.79;21.40;98771.25;6958307;28;20217;-78
2022/07/30 15:52:40;;;;;;;2.63;1.50;;;;;;;33.40;21.41;98765.69;6958765;28;20241;-79
2022/07/30 15:56:01;;;;;;;1.93;1.50;;;;;;;33.46;21.74;98779.09;6958497;28;20225;-79